sensor_id;sensor_type;location;lat;lon;timestamp;pressure;altitude;pressure_sealevel;temperature;humidity
75409;BME280;63979;55.644;37.734;2023-04-03T00:02:31;99958.91;;;9.83;60.35
75409;BME280;63979;55.644;37.734;2023-04-03T00:07:32;99951.56;;;9.58;60.68
75409;BME280;63979;55.644;37.734;2023-04-03T00:12:33;99904.09;;;9.07;61.21
75409;BME280;63979;55.644;37.734;2023-04-03T00:17:34;99965.53;;;9.19;62.11
75409;BME280;63979;55.644;37.734;2023-04-03T00:22:35;99964.78;;;9.02;62.74
75409;BME280;63979;55.644;37.734;2023-04-03T00:27:40;99973.28;;;8.93;62.85
75409;BME280;63979;55.644;37.734;2023-04-03T00:32:41;99952.81;;;8.80;63.28
75409;BME280;63979;55.644;37.734;2023-04-03T00:37:43;99970.97;;;8.87;63.17
75409;BME280;63979;55.644;37.734;2023-04-03T00:42:46;99922.59;;;8.51;63.55
75409;BME280;63979;55.644;37.734;2023-04-03T00:47:48;99983.22;;;8.75;63.73
75409;BME280;63979;55.644;37.734;2023-04-03T00:52:49;99941.97;;;8.53;63.94
75409;BME280;63979;55.644;37.734;2023-04-03T00:57:51;99958.22;;;8.48;64.29
75409;BME280;63979;55.644;37.734;2023-04-03T01:02:53;99966.53;;;8.42;64.70
75409;BME280;63979;55.644;37.734;2023-04-03T01:07:54;99955.06;;;8.41;64.89
75409;BME280;63979;55.644;37.734;2023-04-03T01:12:56;99907.97;;;8.12;64.71
75409;BME280;63979;55.644;37.734;2023-04-03T01:17:58;99970.56;;;8.49;65.04
75409;BME280;63979;55.644;37.734;2023-04-03T01:28:14;99970.69;;;8.62;64.98
75409;BME280;63979;55.644;37.734;2023-04-03T01:33:16;99963.06;;;8.56;64.82
75409;BME280;63979;55.644;37.734;2023-04-03T01:38:17;99973.09;;;8.66;64.00
75409;BME280;63979;55.644;37.734;2023-04-03T01:43:18;99965.75;;;8.56;64.70
75409;BME280;63979;55.644;37.734;2023-04-03T01:48:20;99969.88;;;8.46;64.93
75409;BME280;63979;55.644;37.734;2023-04-03T01:53:22;99969.75;;;8.31;65.40
75409;BME280;63979;55.644;37.734;2023-04-03T01:58:23;99970.13;;;8.25;65.54
75409;BME280;63979;55.644;37.734;2023-04-03T02:03:24;99964.38;;;8.17;66.05
75409;BME280;63979;55.644;37.734;2023-04-03T02:08:26;99968.25;;;8.11;66.15
75409;BME280;63979;55.644;37.734;2023-04-03T02:13:27;99960.59;;;7.90;66.91
75409;BME280;63979;55.644;37.734;2023-04-03T02:18:27;99975.78;;;7.88;67.72
75409;BME280;63979;55.644;37.734;2023-04-03T02:23:29;99977.66;;;7.86;67.50
75409;BME280;63979;55.644;37.734;2023-04-03T02:28:29;99981.25;;;7.85;67.52
75409;BME280;63979;55.644;37.734;2023-04-03T02:33:31;99977.22;;;7.77;67.92
75409;BME280;63979;55.644;37.734;2023-04-03T02:38:31;99974.31;;;7.66;68.24
75409;BME280;63979;55.644;37.734;2023-04-03T02:43:33;99981.97;;;7.55;68.67
75409;BME280;63979;55.644;37.734;2023-04-03T02:48:34;99982.56;;;7.44;68.80
75409;BME280;63979;55.644;37.734;2023-04-03T02:53:36;99994.38;;;7.39;69.08
75409;BME280;63979;55.644;37.734;2023-04-03T02:58:37;99984.53;;;7.41;68.83
75409;BME280;63979;55.644;37.734;2023-04-03T03:03:38;99997.03;;;7.39;68.75
75409;BME280;63979;55.644;37.734;2023-04-03T03:08:39;99968.69;;;7.22;68.82
75409;BME280;63979;55.644;37.734;2023-04-03T03:13:40;99982.53;;;7.29;69.01
75409;BME280;63979;55.644;37.734;2023-04-03T03:18:41;99985.94;;;7.31;69.13
75409;BME280;63979;55.644;37.734;2023-04-03T03:23:42;99986.56;;;7.36;69.18
75409;BME280;63979;55.644;37.734;2023-04-03T03:28:43;99983.59;;;7.25;68.96
75409;BME280;63979;55.644;37.734;2023-04-03T03:33:45;99995.94;;;7.26;69.76
75409;BME280;63979;55.644;37.734;2023-04-03T03:38:47;99962.22;;;7.10;69.33
75409;BME280;63979;55.644;37.734;2023-04-03T03:43:48;99986.47;;;7.37;69.02
75409;BME280;63979;55.644;37.734;2023-04-03T03:48:49;100001.34;;;7.57;68.20
75409;BME280;63979;55.644;37.734;2023-04-03T03:53:50;100008.50;;;7.72;67.96
75409;BME280;63979;55.644;37.734;2023-04-03T03:58:51;99994.53;;;7.85;67.16
75409;BME280;63979;55.644;37.734;2023-04-03T04:03:53;100011.53;;;7.98;66.28
75409;BME280;63979;55.644;37.734;2023-04-03T04:08:57;100007.44;;;8.08;65.73
75409;BME280;63979;55.644;37.734;2023-04-03T04:13:58;100005.03;;;8.19;65.22
75409;BME280;63979;55.644;37.734;2023-04-03T04:18:59;99993.53;;;8.19;65.17
75409;BME280;63979;55.644;37.734;2023-04-03T04:24:00;100011.69;;;8.43;64.35
75409;BME280;63979;55.644;37.734;2023-04-03T04:29:01;100009.66;;;8.63;63.93
75409;BME280;63979;55.644;37.734;2023-04-03T04:34:03;99997.91;;;8.67;63.30
75409;BME280;63979;55.644;37.734;2023-04-03T04:39:04;100013.75;;;8.84;63.12
75409;BME280;63979;55.644;37.734;2023-04-03T04:44:05;99997.91;;;8.97;62.31
75409;BME280;63979;55.644;37.734;2023-04-03T04:49:06;100020.53;;;9.20;61.83
75409;BME280;63979;55.644;37.734;2023-04-03T04:54:07;100010.63;;;9.22;61.19
75409;BME280;63979;55.644;37.734;2023-04-03T04:59:09;100014.97;;;9.38;60.73
75409;BME280;63979;55.644;37.734;2023-04-03T05:04:10;100028.09;;;9.56;60.58
75409;BME280;63979;55.644;37.734;2023-04-03T05:09:13;99936.41;;;9.01;60.75
75409;BME280;63979;55.644;37.734;2023-04-03T05:14:15;100028.38;;;9.65;60.56
75409;BME280;63979;55.644;37.734;2023-04-03T05:19:16;100017.81;;;9.64;59.87
75409;BME280;63979;55.644;37.734;2023-04-03T05:24:17;100017.44;;;9.56;60.34
75409;BME280;63979;55.644;37.734;2023-04-03T05:29:19;99982.28;;;9.35;60.04
75409;BME280;63979;55.644;37.734;2023-04-03T05:34:20;100032.47;;;9.71;60.51
75409;BME280;63979;55.644;37.734;2023-04-03T05:39:21;100040.09;;;9.91;59.44
75409;BME280;63979;55.644;37.734;2023-04-03T05:44:23;100039.06;;;10.08;59.12
75409;BME280;63979;55.644;37.734;2023-04-03T05:49:24;100027.25;;;9.98;58.93
75409;BME280;63979;55.644;37.734;2023-04-03T05:54:28;100044.09;;;10.13;58.52
75409;BME280;63979;55.644;37.734;2023-04-03T05:59:30;100048.88;;;10.22;58.33
75409;BME280;63979;55.644;37.734;2023-04-03T06:04:31;100041.84;;;10.07;58.72
75409;BME280;63979;55.644;37.734;2023-04-03T06:09:32;100047.84;;;10.24;58.59
75409;BME280;63979;55.644;37.734;2023-04-03T06:14:34;100048.44;;;10.56;57.96
75409;BME280;63979;55.644;37.734;2023-04-03T06:19:36;100045.81;;;10.96;56.53
75409;BME280;63979;55.644;37.734;2023-04-03T06:24:38;100049.53;;;11.33;55.75
75409;BME280;63979;55.644;37.734;2023-04-03T06:29:38;100027.84;;;11.76;54.17
75409;BME280;63979;55.644;37.734;2023-04-03T06:34:40;100056.81;;;12.69;51.73
75409;BME280;63979;55.644;37.734;2023-04-03T06:39:42;100057.31;;;13.46;50.15
75409;BME280;63979;55.644;37.734;2023-04-03T06:44:43;100051.91;;;14.71;47.77
75409;BME280;63979;55.644;37.734;2023-04-03T06:49:44;100043.34;;;16.13;43.54
75409;BME280;63979;55.644;37.734;2023-04-03T06:54:45;100043.16;;;17.53;40.63
75409;BME280;63979;55.644;37.734;2023-04-03T06:59:46;100060.22;;;18.56;38.41
75409;BME280;63979;55.644;37.734;2023-04-03T07:04:48;100046.16;;;19.69;35.82
75409;BME280;63979;55.644;37.734;2023-04-03T07:09:49;100049.69;;;20.90;33.73
75409;BME280;63979;55.644;37.734;2023-04-03T07:14:50;100065.72;;;21.74;32.37
75409;BME280;63979;55.644;37.734;2023-04-03T07:19:51;100054.66;;;22.16;32.48
75409;BME280;63979;55.644;37.734;2023-04-03T07:24:54;100053.66;;;23.26;28.45
75409;BME280;63979;55.644;37.734;2023-04-03T07:29:56;100068.59;;;23.30;28.76
75409;BME280;63979;55.644;37.734;2023-04-03T07:34:58;100077.19;;;22.41;29.98
75409;BME280;63979;55.644;37.734;2023-04-03T07:39:59;100072.16;;;21.81;32.10
75409;BME280;63979;55.644;37.734;2023-04-03T07:45:01;100072.78;;;21.02;32.80
75409;BME280;63979;55.644;37.734;2023-04-03T07:50:03;100065.22;;;20.11;34.88
75409;BME280;63979;55.644;37.734;2023-04-03T07:55:06;100067.13;;;19.31;37.16
75409;BME280;63979;55.644;37.734;2023-04-03T08:00:07;100070.59;;;18.24;38.26
75409;BME280;63979;55.644;37.734;2023-04-03T08:05:09;100066.75;;;17.22;39.77
75409;BME280;63979;55.644;37.734;2023-04-03T08:10:11;100067.00;;;16.99;41.32
75409;BME280;63979;55.644;37.734;2023-04-03T08:15:12;100039.59;;;16.75;41.38
75409;BME280;63979;55.644;37.734;2023-04-03T08:20:13;100059.34;;;16.95;40.84
75409;BME280;63979;55.644;37.734;2023-04-03T08:25:14;100069.28;;;16.84;41.43
75409;BME280;63979;55.644;37.734;2023-04-03T08:30:15;100074.09;;;16.91;41.09
75409;BME280;63979;55.644;37.734;2023-04-03T08:35:17;100075.78;;;16.72;42.07
75409;BME280;63979;55.644;37.734;2023-04-03T08:40:18;100083.06;;;16.61;42.24
75409;BME280;63979;55.644;37.734;2023-04-03T08:45:46;100081.53;;;16.28;42.21
75409;BME280;63979;55.644;37.734;2023-04-03T08:50:54;100038.69;;;16.15;41.84
75409;BME280;63979;55.644;37.734;2023-04-03T08:55:58;100086.56;;;16.42;41.48
75409;BME280;63979;55.644;37.734;2023-04-03T09:01:05;100039.09;;;16.50;40.74
75409;BME280;63979;55.644;37.734;2023-04-03T09:06:18;100100.66;;;16.95;40.37
75409;BME280;63979;55.644;37.734;2023-04-03T09:11:25;100098.66;;;16.47;41.11
75409;BME280;63979;55.644;37.734;2023-04-03T09:16:49;100115.69;;;15.97;41.76
75409;BME280;63979;55.644;37.734;2023-04-03T09:21:53;100107.47;;;15.77;42.51
75409;BME280;63979;55.644;37.734;2023-04-03T09:27:10;100087.66;;;15.99;42.21
75409;BME280;63979;55.644;37.734;2023-04-03T09:32:32;100099.88;;;16.03;41.62
75409;BME280;63979;55.644;37.734;2023-04-03T09:42:40;100105.41;;;17.51;39.44
75409;BME280;63979;55.644;37.734;2023-04-03T09:47:42;100116.13;;;18.65;36.63
75409;BME280;63979;55.644;37.734;2023-04-03T09:52:47;100113.84;;;18.24;36.97
75409;BME280;63979;55.644;37.734;2023-04-03T09:57:49;100120.69;;;18.18;37.17
75409;BME280;63979;55.644;37.734;2023-04-03T10:02:54;100116.53;;;18.61;36.16
75409;BME280;63979;55.644;37.734;2023-04-03T10:08:25;100071.25;;;19.18;35.00
75409;BME280;63979;55.644;37.734;2023-04-03T10:13:26;100114.63;;;19.08;35.12
75409;BME280;63979;55.644;37.734;2023-04-03T10:23:48;100071.03;;;18.19;36.83
75409;BME280;63979;55.644;37.734;2023-04-03T10:44:32;100122.59;;;18.82;37.54
75409;BME280;63979;55.644;37.734;2023-04-03T10:55:42;100117.25;;;19.36;35.84
75409;BME280;63979;55.644;37.734;2023-04-03T11:00:49;100107.97;;;19.74;35.22
75409;BME280;63979;55.644;37.734;2023-04-03T11:05:53;100087.94;;;19.31;35.31
75409;BME280;63979;55.644;37.734;2023-04-03T11:10:57;100099.19;;;19.54;35.23
75409;BME280;63979;55.644;37.734;2023-04-03T11:16:02;100105.16;;;18.94;36.49
75409;BME280;63979;55.644;37.734;2023-04-03T11:21:20;100102.78;;;18.17;37.87
75409;BME280;63979;55.644;37.734;2023-04-03T11:26:31;100104.94;;;17.65;37.53
75409;BME280;63979;55.644;37.734;2023-04-03T11:37:15;100041.03;;;16.39;38.79
75409;BME280;63979;55.644;37.734;2023-04-03T11:42:39;100100.66;;;16.55;39.36
75409;BME280;63979;55.644;37.734;2023-04-03T11:47:49;100069.84;;;16.08;40.52
75409;BME280;63979;55.644;37.734;2023-04-03T12:02:58;100093.84;;;15.37;41.72
75409;BME280;63979;55.644;37.734;2023-04-03T12:19:02;100104.75;;;15.24;42.24
75409;BME280;63979;55.644;37.734;2023-04-03T12:24:23;100090.38;;;15.14;41.96
75409;BME280;63979;55.644;37.734;2023-04-03T12:34:51;100110.50;;;15.20;42.39
75409;BME280;63979;55.644;37.734;2023-04-03T12:40:21;100106.16;;;15.08;42.56
75409;BME280;63979;55.644;37.734;2023-04-03T12:45:26;100103.09;;;15.12;43.04
75409;BME280;63979;55.644;37.734;2023-04-03T12:50:30;100116.09;;;14.96;43.36
75409;BME280;63979;55.644;37.734;2023-04-03T12:55:33;100111.34;;;14.88;43.99
75409;BME280;63979;55.644;37.734;2023-04-03T13:00:35;100107.44;;;14.81;43.74
75409;BME280;63979;55.644;37.734;2023-04-03T13:05:39;100111.63;;;14.74;44.09
75409;BME280;63979;55.644;37.734;2023-04-03T13:15:50;100118.81;;;14.74;44.46
75409;BME280;63979;55.644;37.734;2023-04-03T13:20:52;100119.31;;;14.68;44.53
75409;BME280;63979;55.644;37.734;2023-04-03T13:25:54;100118.22;;;14.70;44.91
75409;BME280;63979;55.644;37.734;2023-04-03T13:36:20;100111.84;;;14.82;45.22
75409;BME280;63979;55.644;37.734;2023-04-03T13:41:29;100118.38;;;15.12;43.78
75409;BME280;63979;55.644;37.734;2023-04-03T13:46:30;100103.59;;;15.06;44.80
75409;BME280;63979;55.644;37.734;2023-04-03T13:51:31;100064.78;;;14.99;44.26
75409;BME280;63979;55.644;37.734;2023-04-03T13:56:34;100107.44;;;15.24;44.17
75409;BME280;63979;55.644;37.734;2023-04-03T14:01:46;100095.72;;;14.93;43.73
75409;BME280;63979;55.644;37.734;2023-04-03T14:06:50;100112.75;;;15.15;43.77
75409;BME280;63979;55.644;37.734;2023-04-03T14:12:00;100078.44;;;15.07;44.04
75409;BME280;63979;55.644;37.734;2023-04-03T14:17:21;100099.59;;;15.33;44.50
75409;BME280;63979;55.644;37.734;2023-04-03T14:22:26;100058.69;;;14.97;44.16
75409;BME280;63979;55.644;37.734;2023-04-03T14:27:45;100109.66;;;15.19;43.59
75409;BME280;63979;55.644;37.734;2023-04-03T14:32:47;100086.41;;;14.86;43.86
75409;BME280;63979;55.644;37.734;2023-04-03T14:37:50;100112.44;;;14.97;44.38
75409;BME280;63979;55.644;37.734;2023-04-03T14:42:53;100112.69;;;14.94;43.90
75409;BME280;63979;55.644;37.734;2023-04-03T14:47:55;100108.53;;;14.90;44.18
75409;BME280;63979;55.644;37.734;2023-04-03T14:52:58;100113.53;;;14.83;45.26
75409;BME280;63979;55.644;37.734;2023-04-03T14:57:59;100102.19;;;14.80;44.98
75409;BME280;63979;55.644;37.734;2023-04-03T15:03:01;100061.81;;;14.59;45.20
75409;BME280;63979;55.644;37.734;2023-04-03T15:08:01;100100.28;;;14.59;45.43
75409;BME280;63979;55.644;37.734;2023-04-03T15:13:03;100098.44;;;14.49;45.33
75409;BME280;63979;55.644;37.734;2023-04-03T15:18:05;100113.97;;;14.45;45.54
75409;BME280;63979;55.644;37.734;2023-04-03T15:23:06;100112.38;;;14.43;44.90
75409;BME280;63979;55.644;37.734;2023-04-03T15:28:10;100105.63;;;14.26;45.49
75409;BME280;63979;55.644;37.734;2023-04-03T15:33:16;100114.66;;;14.14;45.85
75409;BME280;63979;55.644;37.734;2023-04-03T15:38:17;100123.19;;;14.08;45.65
75409;BME280;63979;55.644;37.734;2023-04-03T15:43:18;100101.22;;;13.91;44.82
75409;BME280;63979;55.644;37.734;2023-04-03T15:48:19;100104.09;;;13.77;45.44
75409;BME280;63979;55.644;37.734;2023-04-03T15:53:21;100123.38;;;13.82;45.37
75409;BME280;63979;55.644;37.734;2023-04-03T15:58:22;100112.84;;;13.68;45.22
75409;BME280;63979;55.644;37.734;2023-04-03T16:03:24;100117.00;;;13.61;45.20
75409;BME280;63979;55.644;37.734;2023-04-03T16:08:25;100128.47;;;13.63;45.73
75409;BME280;63979;55.644;37.734;2023-04-03T16:13:26;100124.84;;;13.51;45.59
75409;BME280;63979;55.644;37.734;2023-04-03T16:18:28;100129.47;;;13.49;45.87
75409;BME280;63979;55.644;37.734;2023-04-03T16:23:30;100034.78;;;12.90;45.80
75409;BME280;63979;55.644;37.734;2023-04-03T16:28:31;100125.41;;;13.32;46.02
75409;BME280;63979;55.644;37.734;2023-04-03T16:33:33;100136.84;;;13.23;46.49
75409;BME280;63979;55.644;37.734;2023-04-03T16:38:35;100099.03;;;13.02;46.62
75409;BME280;63979;55.644;37.734;2023-04-03T16:43:36;100148.75;;;13.19;46.85
75409;BME280;63979;55.644;37.734;2023-04-03T16:48:38;100144.75;;;13.12;46.94
75409;BME280;63979;55.644;37.734;2023-04-03T16:53:40;100141.44;;;13.08;46.92
75409;BME280;63979;55.644;37.734;2023-04-03T16:58:42;100143.03;;;13.11;46.61
75409;BME280;63979;55.644;37.734;2023-04-03T17:03:44;100160.22;;;13.21;47.83
75409;BME280;63979;55.644;37.734;2023-04-03T17:08:47;100157.31;;;13.11;48.46
75409;BME280;63979;55.644;37.734;2023-04-03T17:13:48;100132.97;;;12.91;49.26
75409;BME280;63979;55.644;37.734;2023-04-03T17:18:50;100158.09;;;13.01;49.16
75409;BME280;63979;55.644;37.734;2023-04-03T17:23:55;100154.38;;;12.91;49.68
75409;BME280;63979;55.644;37.734;2023-04-03T17:28:58;100135.06;;;12.62;50.10
75409;BME280;63979;55.644;37.734;2023-04-03T17:34:03;100162.75;;;12.86;49.92
75409;BME280;63979;55.644;37.734;2023-04-03T17:39:04;100161.59;;;12.77;50.53
75409;BME280;63979;55.644;37.734;2023-04-03T17:44:06;100152.50;;;12.67;50.89
75409;BME280;63979;55.644;37.734;2023-04-03T17:49:07;100156.16;;;12.66;51.71
75409;BME280;63979;55.644;37.734;2023-04-03T17:54:13;100146.84;;;12.46;52.71
75409;BME280;63979;55.644;37.734;2023-04-03T17:59:15;100164.97;;;12.43;53.25
75409;BME280;63979;55.644;37.734;2023-04-03T18:04:17;100158.34;;;12.36;52.97
75409;BME280;63979;55.644;37.734;2023-04-03T18:09:21;100178.97;;;12.46;53.10
75409;BME280;63979;55.644;37.734;2023-04-03T18:14:26;100174.41;;;12.36;53.19
75409;BME280;63979;55.644;37.734;2023-04-03T18:19:28;100171.81;;;12.47;53.27
75409;BME280;63979;55.644;37.734;2023-04-03T18:24:31;100171.94;;;12.33;53.37
75409;BME280;63979;55.644;37.734;2023-04-03T18:29:35;100129.75;;;12.11;53.94
75409;BME280;63979;55.644;37.734;2023-04-03T18:34:38;100121.94;;;12.21;53.24
75409;BME280;63979;55.644;37.734;2023-04-03T18:39:39;100163.03;;;12.32;54.90
75409;BME280;63979;55.644;37.734;2023-04-03T18:44:43;100172.47;;;12.25;55.61
75409;BME280;63979;55.644;37.734;2023-04-03T18:49:46;100164.78;;;12.21;55.86
75409;BME280;63979;55.644;37.734;2023-04-03T18:54:48;100181.47;;;12.24;56.49
75409;BME280;63979;55.644;37.734;2023-04-03T18:59:49;100177.63;;;12.15;57.36
75409;BME280;63979;55.644;37.734;2023-04-03T19:04:51;100189.69;;;12.08;57.85
75409;BME280;63979;55.644;37.734;2023-04-03T19:09:54;100172.03;;;12.06;58.29
75409;BME280;63979;55.644;37.734;2023-04-03T19:14:55;100173.97;;;12.04;58.61
75409;BME280;63979;55.644;37.734;2023-04-03T19:19:56;100158.53;;;11.95;59.36
75409;BME280;63979;55.644;37.734;2023-04-03T19:24:59;100164.31;;;12.01;59.45
75409;BME280;63979;55.644;37.734;2023-04-03T19:30:00;100118.34;;;11.69;60.58
75409;BME280;63979;55.644;37.734;2023-04-03T19:35:02;100145.16;;;11.82;60.40
75409;BME280;63979;55.644;37.734;2023-04-03T19:40:05;100152.69;;;11.75;59.70
75409;BME280;63979;55.644;37.734;2023-04-03T19:45:09;100161.09;;;11.83;60.62
75409;BME280;63979;55.644;37.734;2023-04-03T19:50:10;100104.75;;;11.47;61.36
75409;BME280;63979;55.644;37.734;2023-04-03T19:55:12;100150.00;;;11.75;61.96
75409;BME280;63979;55.644;37.734;2023-04-03T20:00:14;100110.97;;;11.47;63.10
75409;BME280;63979;55.644;37.734;2023-04-03T20:05:16;100165.28;;;11.61;62.63
75409;BME280;63979;55.644;37.734;2023-04-03T20:10:17;100162.06;;;11.55;62.64
75409;BME280;63979;55.644;37.734;2023-04-03T20:15:18;100153.19;;;11.55;62.35
75409;BME280;63979;55.644;37.734;2023-04-03T20:20:19;100147.53;;;11.47;63.66
75409;BME280;63979;55.644;37.734;2023-04-03T20:25:20;100057.34;;;10.97;63.41
75409;BME280;63979;55.644;37.734;2023-04-03T20:30:21;100145.72;;;11.47;63.92
75409;BME280;63979;55.644;37.734;2023-04-03T20:35:23;100140.00;;;11.39;64.88
75409;BME280;63979;55.644;37.734;2023-04-03T20:40:25;100147.91;;;11.41;64.86
75409;BME280;63979;55.644;37.734;2023-04-03T20:45:27;100124.88;;;11.25;65.34
75409;BME280;63979;55.644;37.734;2023-04-03T20:50:29;100141.22;;;11.21;66.26
75409;BME280;63979;55.644;37.734;2023-04-03T20:55:30;100105.59;;;10.81;65.94
75409;BME280;63979;55.644;37.734;2023-04-03T21:00:31;100135.72;;;10.83;67.46
75409;BME280;63979;55.644;37.734;2023-04-03T21:05:34;100132.59;;;10.76;68.22
75409;BME280;63979;55.644;37.734;2023-04-03T21:21:19;100128.28;;;10.74;68.11
75409;BME280;63979;55.644;37.734;2023-04-03T21:26:25;100130.69;;;10.78;68.41
75409;BME280;63979;55.644;37.734;2023-04-03T21:32:06;100137.72;;;10.79;68.62
75409;BME280;63979;55.644;37.734;2023-04-03T21:37:06;100064.31;;;10.31;69.28
75409;BME280;63979;55.644;37.734;2023-04-03T21:42:08;100130.69;;;10.64;69.53
75409;BME280;63979;55.644;37.734;2023-04-03T21:47:09;100056.50;;;10.14;69.36
75409;BME280;63979;55.644;37.734;2023-04-03T21:52:12;100121.00;;;10.49;69.85
75409;BME280;63979;55.644;37.734;2023-04-03T21:57:13;100117.88;;;10.42;69.82
75409;BME280;63979;55.644;37.734;2023-04-03T22:02:14;100119.59;;;10.43;70.28
75409;BME280;63979;55.644;37.734;2023-04-03T22:07:15;100111.75;;;10.40;69.72
75409;BME280;63979;55.644;37.734;2023-04-03T22:12:17;100048.09;;;10.06;69.80
75409;BME280;63979;55.644;37.734;2023-04-03T22:17:18;100101.47;;;10.48;69.10
75409;BME280;63979;55.644;37.734;2023-04-03T22:22:19;100093.34;;;10.50;69.24
75409;BME280;63979;55.644;37.734;2023-04-03T22:27:20;100096.78;;;10.38;69.16
75409;BME280;63979;55.644;37.734;2023-04-03T22:32:21;100077.53;;;10.32;69.27
75409;BME280;63979;55.644;37.734;2023-04-03T22:37:22;100079.00;;;10.24;69.63
75409;BME280;63979;55.644;37.734;2023-04-03T22:42:23;100087.84;;;10.24;69.62
75409;BME280;63979;55.644;37.734;2023-04-03T22:47:24;100065.34;;;10.00;70.21
75409;BME280;63979;55.644;37.734;2023-04-03T22:52:25;100097.94;;;10.19;70.38
75409;BME280;63979;55.644;37.734;2023-04-03T22:57:26;100075.81;;;10.03;70.04
75409;BME280;63979;55.644;37.734;2023-04-03T23:02:27;100054.28;;;9.92;70.37
75409;BME280;63979;55.644;37.734;2023-04-03T23:07:28;100081.56;;;10.11;70.21
75409;BME280;63979;55.644;37.734;2023-04-03T23:12:29;100078.13;;;10.09;69.94
75409;BME280;63979;55.644;37.734;2023-04-03T23:17:30;100077.94;;;10.12;70.03
75409;BME280;63979;55.644;37.734;2023-04-03T23:22:32;100086.91;;;10.25;69.70
75409;BME280;63979;55.644;37.734;2023-04-03T23:27:33;100089.56;;;10.25;69.66
75409;BME280;63979;55.644;37.734;2023-04-03T23:32:34;100046.47;;;10.03;69.99
75409;BME280;63979;55.644;37.734;2023-04-03T23:37:40;100084.13;;;10.27;69.81
75409;BME280;63979;55.644;37.734;2023-04-03T23:42:42;100094.13;;;10.09;70.26
75409;BME280;63979;55.644;37.734;2023-04-03T23:47:43;100079.44;;;10.02;70.16
75409;BME280;63979;55.644;37.734;2023-04-03T23:52:45;100080.03;;;10.07;70.63
75409;BME280;63979;55.644;37.734;2023-04-03T23:57:47;100089.00;;;10.20;70.02
